createdAt,value
2023-02-08T06:01:50.760Z,7.00
2023-02-08T06:06:54.471Z,5.70
2023-02-08T06:11:58.175Z,5.80
2023-02-08T06:17:03.141Z,5.85
2023-02-08T06:22:06.992Z,6.15
2023-02-08T06:27:10.604Z,6.15
2023-02-08T06:32:15.678Z,6.47
2023-02-08T06:37:20.104Z,7.28
2023-02-08T06:42:23.842Z,6.47
2023-02-08T06:47:29.255Z,5.95
2023-02-08T06:52:33.054Z,6.57
2023-02-08T06:57:36.635Z,5.47
2023-02-08T07:02:41.691Z,6.62
2023-02-08T07:07:45.388Z,6.15
2023-02-08T07:12:49.011Z,6.00
2023-02-08T07:17:54.076Z,5.70
2023-02-08T07:22:57.787Z,5.82
2023-02-08T07:28:02.790Z,5.87
2023-02-08T07:33:07.904Z,5.72
2023-02-08T07:43:52.327Z,6.18
2023-02-08T07:48:57.377Z,5.40
2023-02-08T07:54:01.051Z,6.65
2023-02-08T07:59:04.909Z,5.72
2023-02-08T08:09:15.564Z,5.57
2023-02-08T08:14:19.221Z,6.47
2023-02-08T08:19:24.305Z,6.25
2023-02-08T08:24:27.996Z,4.78
2023-02-08T08:29:33.183Z,5.65
2023-02-08T08:34:38.221Z,5.80
2023-02-08T08:39:42.571Z,7.07
2023-02-08T08:44:46.191Z,6.22
2023-02-08T08:49:51.294Z,5.62
2023-02-08T08:54:55.408Z,5.55
2023-02-08T09:05:05.500Z,5.47
2023-02-08T09:10:09.537Z,4.30
2023-02-08T09:20:18.199Z,5.40
2023-02-08T09:25:21.793Z,4.35
2023-02-08T09:30:25.768Z,3.97
2023-02-08T09:35:30.859Z,4.00
2023-02-08T09:40:48.866Z,4.22
2023-02-08T09:46:00.204Z,3.33
2023-02-08T09:51:11.890Z,3.50
2023-02-08T09:56:18.037Z,3.42
2023-02-08T10:01:26.314Z,3.10
2023-02-08T10:06:32.297Z,3.67
2023-02-08T10:11:47.892Z,3.40
2023-02-08T10:17:03.643Z,2.90
2023-02-08T10:22:24.053Z,3.42
2023-02-08T10:27:37.620Z,3.37
2023-02-08T10:32:59.457Z,3.40
2023-02-08T10:38:23.035Z,3.20
2023-02-08T10:43:38.717Z,3.90
2023-02-08T10:49:01.532Z,4.22
2023-02-08T10:54:06.621Z,3.83
2023-02-08T10:59:17.550Z,4.40
2023-02-08T11:04:21.316Z,5.50
2023-02-08T11:09:29.229Z,4.20
2023-02-08T11:14:46.780Z,5.07
2023-02-08T11:19:52.085Z,5.60
2023-02-08T11:25:01.930Z,5.85
2023-02-08T11:30:22.119Z,6.80
2023-02-08T11:35:29.583Z,5.45
2023-02-08T11:40:37.799Z,5.28
2023-02-08T11:45:41.551Z,4.53
2023-02-08T11:50:45.338Z,4.50
2023-02-08T11:56:03.568Z,3.83
2023-02-08T12:01:18.001Z,3.85
2023-02-08T12:06:49.201Z,4.75
2023-02-08T12:12:01.202Z,3.45
2023-02-08T12:17:34.066Z,4.50
2023-02-08T12:22:43.146Z,4.85
2023-02-08T12:27:53.603Z,4.15
2023-02-08T12:33:29.226Z,3.75
2023-02-08T12:39:23.955Z,3.35
2023-02-08T12:44:39.887Z,3.87
2023-02-08T12:49:55.658Z,3.55
2023-02-08T12:55:04.103Z,4.00
2023-02-08T13:00:19.779Z,3.58
2023-02-08T13:05:25.498Z,4.45
2023-02-08T13:17:13.397Z,4.50
2023-02-08T13:22:18.086Z,3.75
2023-02-08T13:27:23.759Z,2.75
2023-02-08T13:32:32.170Z,4.03
2023-02-08T13:37:36.969Z,4.05
2023-02-08T13:42:44.714Z,3.78
2023-02-08T13:47:56.742Z,3.72
2023-02-08T13:53:00.421Z,4.07
2023-02-08T13:58:06.202Z,3.87
2023-02-08T14:03:24.070Z,3.37
2023-02-08T14:08:32.455Z,4.03
2023-02-08T14:13:39.149Z,3.47
2023-02-08T14:18:53.307Z,3.20
2023-02-08T14:24:05.793Z,3.90
2023-02-08T14:29:09.507Z,3.22
2023-02-08T14:34:29.610Z,4.53
2023-02-08T14:39:34.773Z,3.83
2023-02-08T14:45:00.198Z,4.20
2023-02-08T14:50:14.117Z,4.25
2023-02-08T14:55:21.611Z,3.70
2023-02-08T15:00:30.214Z,3.75
2023-02-08T15:05:39.983Z,3.58
2023-02-08T15:10:46.018Z,3.28
2023-02-08T15:15:54.484Z,4.25
2023-02-08T15:21:03.820Z,2.95
2023-02-08T15:26:22.544Z,4.60
2023-02-08T15:31:32.872Z,3.50
2023-02-08T15:36:39.924Z,3.00
2023-02-08T15:41:43.510Z,4.12
2023-02-08T15:46:48.419Z,4.10
2023-02-08T15:51:56.983Z,4.22
2023-02-08T15:57:04.337Z,3.35
2023-02-08T16:02:28.025Z,3.12
2023-02-08T16:07:37.431Z,3.87
2023-02-08T16:12:41.547Z,3.05
2023-02-08T16:17:46.472Z,3.22
2023-02-08T16:22:58.251Z,3.37
2023-02-08T16:28:02.304Z,3.65
2023-02-08T16:33:09.956Z,3.70
2023-02-08T16:38:22.769Z,3.55
2023-02-08T16:43:28.472Z,3.78
2023-02-08T16:48:35.995Z,4.22
2023-02-08T16:53:42.811Z,3.53
2023-02-08T16:58:46.506Z,4.18
2023-02-08T17:03:53.153Z,3.42
2023-02-08T17:08:58.435Z,3.97
2023-02-08T17:14:02.282Z,4.03
2023-02-08T17:19:06.151Z,3.70
2023-02-08T17:24:12.204Z,3.95
2023-02-08T17:29:15.876Z,3.87
2023-02-08T17:34:19.485Z,4.27
2023-02-08T17:39:24.606Z,4.33
2023-02-08T17:44:28.380Z,3.65
2023-02-08T17:49:32.004Z,3.80
2023-02-08T17:54:38.091Z,3.47
2023-02-08T17:59:41.997Z,3.67
2023-02-08T18:04:45.714Z,3.58
2023-02-08T18:09:50.725Z,2.87
2023-02-08T18:14:54.576Z,13.20
2023-02-08T18:19:58.945Z,11.38
2023-02-08T18:25:04.296Z,6.95
2023-02-08T18:30:09.083Z,4.25
2023-02-08T18:35:13.359Z,3.90
2023-02-08T18:40:19.191Z,3.55
2023-02-08T18:45:22.952Z,3.33
2023-02-08T18:50:26.691Z,3.57
2023-02-08T18:55:32.035Z,3.47
2023-02-08T19:00:35.697Z,3.22
2023-02-08T19:05:39.411Z,3.63
2023-02-08T19:10:44.750Z,2.80
2023-02-08T19:15:49.292Z,2.92
2023-02-08T19:20:53.063Z,2.83
2023-02-08T19:25:58.152Z,3.03
2023-02-08T19:31:06.335Z,2.58
2023-02-08T19:36:10.392Z,3.40
2023-02-08T19:41:17.773Z,3.70
2023-02-08T19:46:24.438Z,3.60
2023-02-08T19:51:28.472Z,3.50
2023-02-08T19:56:33.983Z,3.35
2023-02-08T20:01:37.631Z,3.60
2023-02-08T20:06:41.579Z,3.00
2023-02-08T20:12:01.731Z,3.33
2023-02-08T20:17:05.935Z,3.33
2023-02-08T20:22:09.520Z,3.35
2023-02-08T20:27:14.535Z,3.87
2023-02-08T20:32:18.720Z,3.95
2023-02-08T20:37:23.026Z,3.92
2023-02-08T20:52:39.968Z,2.90
2023-02-08T20:57:44.995Z,4.15
2023-02-08T21:02:48.752Z,4.25
2023-02-08T21:07:52.528Z,4.07
2023-02-08T21:12:57.655Z,4.25
2023-02-08T21:18:01.634Z,4.15
2023-02-08T21:23:05.563Z,4.35
2023-02-08T21:28:10.721Z,4.50
2023-02-08T21:33:14.484Z,5.62
2023-02-08T21:38:18.369Z,4.32
2023-02-08T21:43:23.473Z,4.60
2023-02-08T21:48:27.162Z,4.40
2023-02-08T21:53:47.569Z,4.75
2023-02-08T21:58:52.688Z,4.12
2023-02-08T22:03:56.392Z,3.95
2023-02-08T22:09:00.092Z,4.32
2023-02-08T22:14:05.173Z,4.70
2023-02-08T22:19:08.995Z,3.78
2023-02-08T22:24:12.601Z,4.03
2023-02-08T22:29:17.647Z,3.85
2023-02-08T22:34:21.423Z,3.58
2023-02-08T22:39:25.251Z,3.85
2023-02-08T22:44:30.422Z,4.75
2023-02-08T22:49:34.334Z,4.72
2023-02-08T22:54:38.134Z,5.28
2023-02-08T22:59:43.137Z,6.55
2023-02-08T23:04:46.803Z,5.40
2023-02-08T23:09:50.441Z,6.00
2023-02-08T23:14:55.629Z,4.22
2023-02-08T23:19:59.648Z,4.53
2023-02-08T23:25:03.254Z,4.68
